Time;durP1;ratioP1;P1;durP2;ratioP2;P2;SDS_P1;SDS_P2;PMS_P1;PMS_P2;Temp;Humidity;BMP_temperature;BMP_pressure;BME280_temperature;BME280_humidity;BME280_pressure;Samples;Min_cycle;Max_cycle;Signal;HPM_P1;HPM_P2
2024/02/20 00:00:11;;;;;;;44.30;6.03;;;6.30;99.90;;;;;;5065887;28;20055;-66
2024/02/20 00:02:38;;;;;;;40.95;6.68;;;6.30;99.90;;;;;;5065566;28;20040;-66
2024/02/20 00:05:08;;;;;;;40.67;5.72;;;6.20;99.90;;;;;;5048666;28;20118;-66
2024/02/20 00:07:34;;;;;;;45.22;8.13;;;6.20;99.90;;;;;;5053250;28;20490;-66
2024/02/20 00:09:59;;;;;;;50.95;7.32;;;6.20;99.90;;;;;;5050238;28;20136;-66
2024/02/20 00:12:25;;;;;;;37.55;5.97;;;6.20;99.90;;;;;;5062407;28;20706;-66
2024/02/20 00:14:51;;;;;;;47.33;7.10;;;6.10;99.90;;;;;;5048532;28;20049;-66
2024/02/20 00:17:17;;;;;;;47.60;5.65;;;6.10;99.90;;;;;;5049047;28;20055;-66
2024/02/20 00:19:43;;;;;;;43.25;7.82;;;6.10;99.90;;;;;;5051780;28;20045;-66
2024/02/20 00:22:09;;;;;;;40.25;7.05;;;6.10;99.90;;;;;;5045354;28;20562;-66
2024/02/20 00:24:34;;;;;;;46.05;8.23;;;6.10;99.90;;;;;;5047593;28;20051;-66
2024/02/20 00:27:00;;;;;;;51.25;6.57;;;6.10;99.90;;;;;;5043227;28;20043;-66
2024/02/20 00:29:26;;;;;;;46.05;6.22;;;6.10;99.90;;;;;;5046032;28;20098;-66
2024/02/20 00:31:51;;;;;;;41.80;7.38;;;6.10;99.90;;;;;;5047253;28;20529;-66
2024/02/20 00:34:18;;;;;;;41.42;7.07;;;6.00;99.90;;;;;;5045800;28;20052;-66
2024/02/20 00:36:44;;;;;;;46.30;7.20;;;6.00;99.90;;;;;;5046879;28;20049;-66
2024/02/20 00:39:12;;;;;;;40.50;6.55;;;6.00;99.90;;;;;;5046964;28;20127;-66
2024/02/20 00:41:38;;;;;;;38.88;5.85;;;6.10;99.90;;;;;;5065372;28;20041;-66
2024/02/20 00:44:04;;;;;;;38.78;7.22;;;6.10;99.90;;;;;;5047016;28;20043;-66
2024/02/20 00:46:29;;;;;;;42.97;6.57;;;6.00;99.90;;;;;;5044385;28;20032;-66
2024/02/20 00:48:55;;;;;;;50.28;7.28;;;6.00;99.90;;;;;;5026779;28;20035;-66
2024/02/20 00:51:22;;;;;;;39.83;5.85;;;6.00;99.90;;;;;;5064171;28;20309;-66
2024/02/20 00:53:51;;;;;;;46.80;8.10;;;6.00;99.90;;;;;;5046325;28;20528;-65
2024/02/20 00:56:16;;;;;;;46.78;7.63;;;6.00;99.90;;;;;;5061662;28;20080;-66
2024/02/20 00:58:45;;;;;;;48.67;8.30;;;6.00;99.90;;;;;;5062980;28;20059;-66
2024/02/20 01:01:12;;;;;;;48.75;7.13;;;6.00;99.90;;;;;;5063280;28;20033;-66
2024/02/20 01:03:38;;;;;;;38.70;6.63;;;6.00;99.90;;;;;;5047127;28;20090;-66
2024/02/20 01:06:06;;;;;;;43.70;6.15;;;6.00;99.90;;;;;;5063509;28;20033;-66
2024/02/20 01:08:32;;;;;;;33.30;6.53;;;6.00;99.90;;;;;;5048337;28;20059;-66
2024/02/20 01:10:58;;;;;;;45.45;6.68;;;6.00;99.90;;;;;;5062289;28;20036;-66
2024/02/20 01:13:23;;;;;;;45.05;7.32;;;6.00;99.90;;;;;;5045712;28;20041;-66
2024/02/20 01:15:49;;;;;;;37.20;7.22;;;6.00;99.90;;;;;;5064246;28;20068;-66
2024/02/20 01:18:14;;;;;;;40.78;6.63;;;6.00;99.90;;;;;;5044712;28;20063;-66
2024/02/20 01:20:40;;;;;;;41.40;8.02;;;6.00;99.90;;;;;;5051460;28;20056;-66
2024/02/20 01:23:06;;;;;;;46.72;8.88;;;6.00;99.90;;;;;;5044727;28;20053;-66
2024/02/20 01:25:32;;;;;;;38.47;6.28;;;6.00;99.90;;;;;;5051545;28;20045;-66
2024/02/20 01:27:58;;;;;;;37.97;5.20;;;6.10;99.90;;;;;;5066585;28;20025;-66
2024/02/20 01:30:23;;;;;;;38.22;5.03;;;6.10;99.90;;;;;;5049882;28;20075;-66
2024/02/20 01:32:49;;;;;;;35.83;6.20;;;6.00;99.90;;;;;;5066327;28;20100;-66
2024/02/20 01:35:15;;;;;;;35.42;5.53;;;6.00;99.90;;;;;;5068451;28;20040;-66
2024/02/20 01:37:41;;;;;;;39.80;5.47;;;6.10;99.90;;;;;;5048363;28;20044;-66
2024/02/20 01:40:08;;;;;;;49.42;7.82;;;6.10;99.90;;;;;;5063818;28;20056;-66
2024/02/20 01:42:35;;;;;;;31.85;5.90;;;6.10;99.90;;;;;;5046540;28;20033;-66
2024/02/20 01:45:02;;;;;;;48.00;6.15;;;6.10;99.90;;;;;;5052031;28;20041;-66
2024/02/20 01:47:28;;;;;;;41.15;6.50;;;6.10;99.90;;;;;;5045474;28;20052;-66
2024/02/20 01:49:54;;;;;;;33.58;5.15;;;6.10;99.90;;;;;;5044112;28;20130;-66
2024/02/20 01:52:20;;;;;;;40.30;5.78;;;6.10;99.90;;;;;;5046999;28;20040;-66
2024/02/20 01:54:46;;;;;;;41.67;6.20;;;6.20;99.90;;;;;;5063101;28;20495;-66
2024/02/20 01:57:12;;;;;;;40.05;5.40;;;6.10;99.90;;;;;;5062873;28;20086;-66
2024/02/20 01:59:38;;;;;;;42.25;5.00;;;6.20;99.90;;;;;;5051407;28;20403;-66
2024/02/20 02:02:06;;;;;;;37.53;6.53;;;6.20;99.90;;;;;;5051184;28;20036;-66
2024/02/20 02:04:32;;;;;;;44.08;5.30;;;6.20;99.90;;;;;;5050221;28;20047;-66
2024/02/20 02:06:57;;;;;;;36.95;5.60;;;6.20;99.90;;;;;;5048103;28;20037;-66
2024/02/20 02:09:24;;;;;;;31.63;5.40;;;6.20;99.90;;;;;;5049348;28;20082;-66
2024/02/20 02:11:50;;;;;;;36.40;5.07;;;6.20;99.90;;;;;;5036404;28;20154;-66
2024/02/20 02:14:15;;;;;;;38.97;5.85;;;6.20;99.90;;;;;;5051132;28;20707;-66
2024/02/20 02:16:45;;;;;;;42.58;7.00;;;6.20;99.90;;;;;;5052082;28;20073;-66
2024/02/20 02:19:11;;;;;;;46.38;6.30;;;6.20;99.90;;;;;;5063811;28;20575;-66
2024/02/20 02:21:37;;;;;;;41.92;5.07;;;6.20;99.90;;;;;;5046912;28;20073;-66
2024/02/20 02:24:07;;;;;;;32.83;5.40;;;6.20;99.90;;;;;;5066456;28;20125;-66
2024/02/20 02:26:36;;;;;;;36.88;5.18;;;6.20;99.90;;;;;;5065985;28;20036;-66
2024/02/20 02:29:02;;;;;;;41.80;5.90;;;6.20;99.90;;;;;;5066171;28;20125;-66
2024/02/20 02:31:28;;;;;;;37.03;5.57;;;6.20;99.90;;;;;;5066160;28;20052;-66
2024/02/20 02:33:53;;;;;;;38.83;4.60;;;6.10;99.90;;;;;;5052128;28;20044;-66
2024/02/20 02:36:19;;;;;;;33.70;5.45;;;6.10;99.90;;;;;;5066497;28;21323;-66
2024/02/20 02:38:44;;;;;;;40.88;5.97;;;6.10;99.90;;;;;;5048656;28;20087;-66
2024/02/20 02:41:13;;;;;;;43.13;6.28;;;6.10;99.90;;;;;;5045965;28;20049;-66
2024/02/20 02:43:39;;;;;;;39.42;4.78;;;6.10;99.90;;;;;;5064122;28;20060;-66
2024/02/20 02:46:04;;;;;;;29.95;5.30;;;6.10;99.90;;;;;;5047672;28;20942;-66
2024/02/20 02:48:30;;;;;;;42.83;6.18;;;6.10;99.90;;;;;;5046443;28;20043;-66
2024/02/20 02:50:56;;;;;;;32.85;5.22;;;6.10;99.90;;;;;;5045088;28;20035;-66
2024/02/20 02:53:21;;;;;;;37.08;4.90;;;6.10;99.90;;;;;;5052526;28;20426;-66
2024/02/20 02:55:50;;;;;;;34.72;6.10;;;6.10;99.90;;;;;;5064531;28;20047;-66
2024/02/20 02:58:15;;;;;;;35.00;4.75;;;6.10;99.90;;;;;;5047900;28;20063;-66
2024/02/20 03:00:41;;;;;;;28.33;4.65;;;6.10;99.90;;;;;;5053095;28;20126;-66
2024/02/20 03:03:07;;;;;;;34.10;4.15;;;6.10;99.90;;;;;;5050171;28;20171;-66
2024/02/20 03:05:36;;;;;;;38.00;4.75;;;6.10;99.90;;;;;;5061488;28;20168;-66
2024/02/20 03:08:02;;;;;;;31.23;4.70;;;6.10;99.90;;;;;;5050364;28;20045;-66
2024/02/20 03:10:27;;;;;;;31.85;4.88;;;6.10;99.90;;;;;;5045652;28;20605;-66
2024/02/20 03:12:55;;;;;;;34.53;4.90;;;6.10;99.90;;;;;;5048551;28;20028;-66
2024/02/20 03:15:21;;;;;;;35.17;4.78;;;6.10;99.90;;;;;;5064521;28;20040;-66
2024/02/20 03:17:47;;;;;;;28.90;5.20;;;6.10;99.90;;;;;;5032944;28;20052;-66
2024/02/20 03:20:14;;;;;;;33.90;4.57;;;6.00;99.90;;;;;;5047736;28;20036;-66
2024/02/20 03:22:44;;;;;;;29.00;4.63;;;6.00;99.90;;;;;;5063875;28;20036;-66
2024/02/20 03:25:10;;;;;;;40.65;5.93;;;6.00;99.90;;;;;;5048254;28;20043;-66
2024/02/20 03:27:36;;;;;;;42.25;4.70;;;6.00;99.90;;;;;;5053239;28;20073;-66
2024/02/20 03:30:04;;;;;;;35.13;4.28;;;6.00;99.90;;;;;;5049559;28;20127;-66
2024/02/20 03:32:29;;;;;;;39.13;5.07;;;6.00;99.90;;;;;;5047571;28;20046;-66
2024/02/20 03:34:55;;;;;;;34.17;4.80;;;6.00;99.90;;;;;;5080691;28;20045;-66
2024/02/20 03:37:21;;;;;;;39.95;4.57;;;5.90;99.90;;;;;;5045993;28;20041;-66
2024/02/20 03:39:46;;;;;;;28.27;4.93;;;6.00;99.90;;;;;;5050717;28;20032;-66
2024/02/20 03:42:12;;;;;;;30.48;3.75;;;6.00;99.90;;;;;;5047616;28;20036;-66
2024/02/20 03:44:38;;;;;;;38.30;5.40;;;5.90;99.90;;;;;;5047996;28;20036;-66
2024/02/20 03:47:05;;;;;;;37.15;5.25;;;6.00;99.90;;;;;;5048832;28;20040;-66
2024/02/20 03:49:30;;;;;;;32.03;6.05;;;5.90;99.90;;;;;;5044564;28;20123;-66
2024/02/20 03:51:56;;;;;;;29.20;4.35;;;5.90;99.90;;;;;;5060792;28;20484;-66
2024/02/20 03:54:21;;;;;;;28.27;4.53;;;6.00;99.90;;;;;;5046252;28;20047;-66
2024/02/20 03:56:47;;;;;;;34.22;4.85;;;5.90;99.90;;;;;;5060300;28;20076;-66
2024/02/20 03:59:13;;;;;;;35.95;4.95;;;5.80;99.90;;;;;;5048543;28;20134;-66
2024/02/20 04:01:39;;;;;;;24.27;4.00;;;5.90;99.90;;;;;;5044411;28;20423;-66
2024/02/20 04:04:05;;;;;;;34.33;4.80;;;5.80;99.90;;;;;;5046183;28;20051;-66
2024/02/20 04:06:32;;;;;;;32.42;4.38;;;5.80;99.90;;;;;;5063837;28;20045;-66
2024/02/20 04:09:03;;;;;;;34.70;4.40;;;5.80;99.90;;;;;;5046211;28;20094;-66
2024/02/20 04:11:29;;;;;;;35.88;4.80;;;5.70;99.90;;;;;;5045642;28;20517;-66
2024/02/20 04:13:55;;;;;;;35.88;5.13;;;5.70;99.90;;;;;;5064311;28;20094;-66
2024/02/20 04:16:21;;;;;;;35.22;4.90;;;5.70;99.90;;;;;;5061361;28;20072;-66
2024/02/20 04:18:46;;;;;;;36.28;4.22;;;5.70;99.90;;;;;;5046504;28;20044;-66
2024/02/20 04:21:12;;;;;;;30.10;4.93;;;5.70;99.90;;;;;;5044359;28;20615;-66
2024/02/20 04:23:38;;;;;;;44.28;4.88;;;5.70;99.90;;;;;;5047241;28;20137;-66
2024/02/20 04:26:03;;;;;;;30.50;4.18;;;5.60;99.90;;;;;;5064462;28;20040;-66
2024/02/20 04:28:34;;;;;;;27.15;3.90;;;5.60;99.90;;;;;;5044278;28;20063;-66
2024/02/20 04:31:01;;;;;;;26.05;3.42;;;5.60;99.90;;;;;;5064106;28;20036;-66
2024/02/20 04:33:26;;;;;;;26.58;3.92;;;5.60;99.90;;;;;;5062679;28;20751;-66
2024/02/20 04:35:52;;;;;;;37.47;5.38;;;5.60;99.90;;;;;;5046224;28;20072;-66
2024/02/20 04:38:18;;;;;;;38.60;5.38;;;5.50;99.90;;;;;;5046928;28;20045;-66
2024/02/20 04:40:43;;;;;;;36.40;4.47;;;5.50;99.90;;;;;;5046770;28;20032;-66
2024/02/20 04:43:09;;;;;;;32.17;4.45;;;5.50;99.90;;;;;;5063734;28;20037;-66
2024/02/20 04:45:34;;;;;;;27.77;3.60;;;5.50;99.90;;;;;;5047221;28;20680;-66
2024/02/20 04:48:00;;;;;;;39.42;4.60;;;5.50;99.90;;;;;;5043338;28;20036;-66
2024/02/20 04:50:25;;;;;;;40.45;5.00;;;5.50;99.90;;;;;;5042373;28;20036;-66
2024/02/20 04:52:52;;;;;;;35.97;4.85;;;5.50;99.90;;;;;;5065734;28;20500;-66
2024/02/20 04:55:17;;;;;;;39.67;4.82;;;5.50;99.90;;;;;;5064152;28;20044;-66
2024/02/20 04:57:43;;;;;;;31.88;4.90;;;5.50;99.90;;;;;;5046933;28;20102;-66
2024/02/20 05:00:10;;;;;;;38.60;4.45;;;5.50;99.90;;;;;;5051104;28;20043;-66
2024/02/20 05:02:37;;;;;;;40.72;5.35;;;5.50;99.90;;;;;;5043322;28;20128;-66
2024/02/20 05:05:04;;;;;;;34.03;4.53;;;5.50;99.90;;;;;;5042396;28;20044;-66
2024/02/20 05:07:30;;;;;;;31.65;4.63;;;5.50;99.90;;;;;;5046215;28;20035;-66
2024/02/20 05:09:55;;;;;;;33.95;4.20;;;5.50;99.90;;;;;;5064275;28;20459;-66
2024/02/20 05:12:21;;;;;;;33.85;4.95;;;5.60;99.90;;;;;;5030014;28;20039;-66
2024/02/20 05:14:48;;;;;;;33.03;4.03;;;5.50;99.90;;;;;;5045516;28;20398;-66
2024/02/20 05:17:14;;;;;;;37.63;3.97;;;5.50;99.90;;;;;;5043762;28;20041;-66
2024/02/20 05:19:39;;;;;;;41.78;4.97;;;5.50;99.90;;;;;;5043239;28;20044;-66
2024/02/20 05:22:06;;;;;;;34.72;4.25;;;5.60;99.90;;;;;;5044559;28;20106;-66
2024/02/20 05:24:36;;;;;;;27.13;4.22;;;5.60;99.90;;;;;;5061827;28;20071;-66
2024/02/20 05:27:05;;;;;;;40.78;5.95;;;5.60;99.90;;;;;;5063048;28;20073;-66
2024/02/20 05:29:30;;;;;;;38.70;4.22;;;5.60;99.90;;;;;;5045564;28;20548;-66
2024/02/20 05:31:59;;;;;;;32.65;4.53;;;5.60;99.90;;;;;;5067440;28;20032;-66
2024/02/20 05:34:25;;;;;;;31.80;5.00;;;5.70;99.90;;;;;;5038794;28;20632;-66
2024/02/20 05:36:50;;;;;;;28.17;4.63;;;5.70;99.90;;;;;;5035935;28;20058;-66
2024/02/20 05:39:16;;;;;;;27.70;5.45;;;5.70;99.90;;;;;;5051910;28;20036;-66
2024/02/20 05:41:42;;;;;;;30.85;5.25;;;5.70;99.90;;;;;;5052377;28;20048;-66
2024/02/20 05:44:07;;;;;;;36.85;5.25;;;5.70;99.90;;;;;;5050733;28;20044;-66
2024/02/20 05:46:33;;;;;;;37.20;4.50;;;5.70;99.90;;;;;;5053203;28;20049;-66
2024/02/20 05:49:00;;;;;;;32.85;4.43;;;5.80;99.90;;;;;;5053420;28;20060;-66
2024/02/20 05:51:27;;;;;;;36.90;5.00;;;5.80;99.90;;;;;;5054661;28;20032;-66
2024/02/20 05:53:53;;;;;;;41.03;4.32;;;5.80;99.90;;;;;;5057349;28;20043;-66
2024/02/20 05:56:22;;;;;;;31.52;4.10;;;5.80;99.90;;;;;;5074458;28;20418;-66
2024/02/20 05:58:48;;;;;;;43.97;4.32;;;5.90;99.90;;;;;;5068435;28;20032;-66
2024/02/20 06:01:15;;;;;;;29.38;3.63;;;5.80;99.90;;;;;;5068688;28;20564;-66
2024/02/20 06:03:41;;;;;;;38.50;5.07;;;5.80;99.90;;;;;;5048892;28;20485;-66
2024/02/20 06:06:08;;;;;;;38.53;6.57;;;5.90;99.90;;;;;;5051180;28;20047;-66
2024/02/20 06:08:35;;;;;;;40.55;5.47;;;5.90;99.90;;;;;;5054150;28;20035;-66
2024/02/20 06:11:01;;;;;;;34.30;4.28;;;5.90;99.90;;;;;;5070952;28;20441;-66
2024/02/20 06:13:26;;;;;;;37.17;5.00;;;5.80;99.90;;;;;;5042455;28;20047;-66
2024/02/20 06:15:52;;;;;;;28.77;5.35;;;5.80;99.90;;;;;;5051683;28;20405;-66
2024/02/20 06:18:18;;;;;;;38.88;5.22;;;5.90;99.90;;;;;;5035862;28;20473;-66
2024/02/20 06:20:48;;;;;;;32.55;5.07;;;5.90;99.90;;;;;;5068209;28;20127;-66
2024/02/20 06:23:14;;;;;;;28.48;3.80;;;5.90;99.90;;;;;;5070930;28;20656;-66
2024/02/20 06:25:44;;;;;;;34.80;5.00;;;5.90;99.90;;;;;;5053877;28;20029;-66
2024/02/20 06:28:12;;;;;;;34.08;4.57;;;5.90;99.90;;;;;;5070067;28;20041;-66
2024/02/20 06:30:38;;;;;;;30.45;5.05;;;5.90;99.90;;;;;;5050709;28;20049;-66
2024/02/20 06:33:04;;;;;;;32.90;5.30;;;5.90;99.90;;;;;;5049392;28;20044;-66
2024/02/20 06:35:29;;;;;;;35.08;4.97;;;6.00;99.90;;;;;;5033528;28;20039;-65
2024/02/20 06:37:55;;;;;;;33.35;4.45;;;6.00;99.90;;;;;;5069563;28;20036;-66
2024/02/20 06:40:20;;;;;;;30.20;5.43;;;6.00;99.90;;;;;;5070087;28;20490;-66
2024/02/20 06:42:46;;;;;;;25.13;4.78;;;6.00;99.90;;;;;;5045802;28;20032;-66
2024/02/20 06:45:12;;;;;;;38.30;5.15;;;6.00;99.90;;;;;;5066418;28;20033;-66
2024/02/20 06:47:38;;;;;;;30.05;4.38;;;6.10;99.90;;;;;;5051837;28;20086;-66
2024/02/20 06:50:08;;;;;;;31.08;5.15;;;6.10;99.90;;;;;;5067484;28;20440;-66
2024/02/20 06:52:35;;;;;;;28.63;5.35;;;6.10;99.90;;;;;;5065700;28;20047;-66
2024/02/20 06:55:00;;;;;;;35.67;4.43;;;6.10;99.90;;;;;;5063890;28;20517;-66
2024/02/20 06:57:26;;;;;;;37.70;6.95;;;6.10;99.90;;;;;;5066815;28;20040;-66
2024/02/20 06:59:52;;;;;;;36.05;5.70;;;6.20;99.90;;;;;;5062996;28;20041;-66
2024/02/20 07:02:17;;;;;;;29.13;5.30;;;6.10;99.90;;;;;;5032289;28;20080;-66
2024/02/20 07:04:43;;;;;;;38.33;4.93;;;6.20;99.90;;;;;;5044475;28;21613;-66
2024/02/20 07:07:09;;;;;;;38.05;5.43;;;6.20;99.90;;;;;;5065561;28;20079;-66
2024/02/20 07:09:35;;;;;;;33.60;5.88;;;6.20;99.90;;;;;;5044004;28;20073;-66
2024/02/20 07:12:01;;;;;;;42.35;5.18;;;6.20;99.90;;;;;;5063325;28;20038;-66
2024/02/20 07:14:26;;;;;;;34.60;4.90;;;6.20;99.90;;;;;;5047177;28;20613;-66
2024/02/20 07:16:52;;;;;;;36.58;6.75;;;6.30;99.90;;;;;;5063365;28;20066;-66
2024/02/20 07:19:21;;;;;;;35.17;5.35;;;6.40;99.90;;;;;;5046088;28;20068;-66
2024/02/20 07:21:47;;;;;;;39.95;6.60;;;6.40;99.90;;;;;;5063395;28;20127;-66
2024/02/20 07:24:12;;;;;;;28.15;4.13;;;6.30;99.90;;;;;;5048399;28;20457;-66
2024/02/20 07:26:38;;;;;;;27.95;4.45;;;6.40;99.90;;;;;;5063113;28;20046;-66
2024/02/20 07:29:04;;;;;;;32.70;5.43;;;6.50;99.90;;;;;;5062891;28;20548;-66
2024/02/20 07:31:29;;;;;;;32.47;4.10;;;6.40;99.90;;;;;;5064000;28;20457;-66
2024/02/20 07:33:55;;;;;;;35.58;4.32;;;6.50;99.90;;;;;;5065436;28;20037;-66
2024/02/20 07:36:22;;;;;;;35.72;6.05;;;6.50;99.90;;;;;;5048493;28;20486;-66
2024/02/20 07:38:48;;;;;;;35.28;6.13;;;6.60;99.90;;;;;;5065768;28;20509;-66
2024/02/20 07:41:13;;;;;;;31.83;4.60;;;6.60;99.90;;;;;;5050720;28;20049;-66
2024/02/20 07:43:41;;;;;;;32.42;5.32;;;6.70;99.90;;;;;;5045958;28;20048;-66
2024/02/20 07:46:07;;;;;;;37.13;5.80;;;6.70;99.90;;;;;;5065517;28;20043;-66
2024/02/20 07:48:32;;;;;;;34.28;4.20;;;6.80;99.90;;;;;;5045002;28;20032;-67
2024/02/20 07:50:58;;;;;;;34.78;4.93;;;6.80;99.90;;;;;;5047207;28;20045;-70
2024/02/20 07:53:24;;;;;;;33.17;4.57;;;6.90;99.90;;;;;;5046695;28;20036;-66
2024/02/20 07:55:50;;;;;;;29.63;4.28;;;6.90;99.90;;;;;;5063098;28;20487;-66
2024/02/20 07:58:15;;;;;;;38.67;5.75;;;6.90;99.90;;;;;;5063130;28;20032;-66
2024/02/20 08:00:41;;;;;;;44.17;6.15;;;6.90;99.90;;;;;;5045057;28;20530;-66
2024/02/20 08:03:07;;;;;;;41.90;5.03;;;7.00;99.90;;;;;;5063685;28;20033;-66
2024/02/20 08:05:32;;;;;;;39.38;5.63;;;7.00;99.90;;;;;;5045253;28;20845;-66
2024/02/20 08:07:58;;;;;;;45.53;5.57;;;7.00;99.90;;;;;;5044734;28;20052;-66
2024/02/20 08:10:24;;;;;;;38.45;6.05;;;7.00;99.90;;;;;;5075489;28;20051;-66
2024/02/20 08:12:49;;;;;;;38.83;5.53;;;7.10;99.90;;;;;;5046982;28;20036;-66
2024/02/20 08:15:15;;;;;;;29.27;4.68;;;7.10;99.90;;;;;;5066404;28;20037;-66
2024/02/20 08:17:41;;;;;;;34.65;4.75;;;7.10;99.90;;;;;;5047272;28;20110;-66
2024/02/20 08:20:07;;;;;;;33.78;5.22;;;7.20;99.90;;;;;;5046531;28;20054;-66
2024/02/20 08:22:33;;;;;;;41.35;5.88;;;7.20;99.90;;;;;;5041359;28;20508;-66
2024/02/20 08:24:59;;;;;;;29.50;5.40;;;7.30;99.90;;;;;;5060076;28;20045;-66
2024/02/20 08:27:24;;;;;;;39.08;6.68;;;7.30;99.90;;;;;;5048920;28;20041;-66
2024/02/20 08:29:50;;;;;;;36.00;5.05;;;7.30;99.90;;;;;;5061206;28;20036;-66
2024/02/20 08:32:16;;;;;;;35.33;5.97;;;7.40;99.90;;;;;;5040275;28;20064;-66
2024/02/20 08:34:43;;;;;;;41.97;6.72;;;7.40;99.90;;;;;;5060655;28;20394;-66
2024/02/20 08:37:08;;;;;;;43.85;6.20;;;7.50;99.90;;;;;;5062583;28;20111;-66
2024/02/20 08:39:35;;;;;;;30.67;5.57;;;7.50;99.90;;;;;;5061518;28;20458;-66
2024/02/20 08:42:00;;;;;;;37.72;5.53;;;7.50;99.90;;;;;;5041422;28;20043;-66
2024/02/20 08:44:26;;;;;;;45.00;6.13;;;7.60;99.90;;;;;;5044652;28;20036;-66
2024/02/20 08:46:52;;;;;;;39.33;6.00;;;7.60;99.90;;;;;;5050508;28;20037;-66
2024/02/20 08:49:17;;;;;;;33.70;5.63;;;7.70;99.90;;;;;;5040382;28;20055;-66
2024/02/20 08:51:43;;;;;;;32.67;5.95;;;7.80;99.90;;;;;;5063779;28;20072;-66
2024/02/20 08:54:09;;;;;;;44.35;6.60;;;7.90;99.90;;;;;;5046801;28;20051;-66
2024/02/20 08:56:35;;;;;;;38.83;8.10;;;7.90;99.90;;;;;;5033678;28;20040;-66
2024/02/20 08:59:00;;;;;;;30.45;5.63;;;8.00;99.90;;;;;;5042818;28;20040;-66
2024/02/20 09:01:26;;;;;;;33.38;7.03;;;8.00;99.90;;;;;;5027468;28;20043;-66
2024/02/20 09:03:54;;;;;;;35.92;6.20;;;8.00;99.90;;;;;;5038891;28;20041;-66
2024/02/20 09:06:20;;;;;;;46.40;6.63;;;8.10;99.90;;;;;;5061628;28;20037;-66
2024/02/20 09:08:46;;;;;;;38.38;6.30;;;8.10;99.90;;;;;;5042902;28;20079;-66
2024/02/20 09:11:12;;;;;;;37.35;7.43;;;8.10;99.90;;;;;;5060581;28;20056;-66
2024/02/20 09:13:38;;;;;;;40.88;7.57;;;8.20;99.90;;;;;;5043672;28;20028;-66
2024/02/20 09:16:04;;;;;;;34.70;7.18;;;8.20;99.90;;;;;;5063768;28;20040;-66
2024/02/20 09:18:37;;;;;;;39.13;7.55;;;8.20;99.90;;;;;;5041302;28;20055;-66
2024/02/20 09:21:04;;;;;;;38.85;7.93;;;8.30;99.90;;;;;;5043848;28;21679;-66
2024/02/20 09:23:32;;;;;;;35.70;7.30;;;8.20;99.90;;;;;;5061180;28;20052;-66
2024/02/20 09:25:58;;;;;;;31.02;6.80;;;8.30;99.90;;;;;;5043132;28;20487;-66
2024/02/20 09:28:23;;;;;;;40.33;8.63;;;8.30;99.90;;;;;;5044210;28;20447;-66
2024/02/20 09:30:49;;;;;;;35.33;8.32;;;8.40;99.90;;;;;;5056361;28;20043;-66
2024/02/20 09:33:18;;;;;;;42.47;8.02;;;8.30;99.90;;;;;;5067761;28;20131;-66
2024/02/20 09:35:44;;;;;;;33.47;7.25;;;8.40;99.90;;;;;;5047766;28;20044;-66
2024/02/20 09:38:12;;;;;;;29.35;8.07;;;8.40;99.90;;;;;;5061272;28;20040;-66
2024/02/20 09:40:38;;;;;;;36.42;8.40;;;8.40;99.90;;;;;;5048079;28;20124;-66
2024/02/20 09:43:04;;;;;;;38.58;8.45;;;8.40;99.90;;;;;;5041672;28;20163;-66
2024/02/20 09:45:32;;;;;;;38.88;9.57;;;8.50;99.90;;;;;;5047988;28;20115;-66
2024/02/20 09:47:58;;;;;;;36.63;9.52;;;8.50;99.90;;;;;;5040938;28;20041;-66
2024/02/20 09:50:25;;;;;;;35.65;8.07;;;8.50;99.90;;;;;;5044632;28;20045;-66
2024/02/20 09:52:56;;;;;;;40.72;9.63;;;8.50;99.90;;;;;;5057995;28;20039;-66
2024/02/20 09:55:26;;;;;;;35.47;8.65;;;8.50;99.90;;;;;;5041075;28;20067;-66
2024/02/20 09:57:52;;;;;;;33.80;8.27;;;8.50;99.90;;;;;;5046072;28;20049;-66
2024/02/20 10:00:19;;;;;;;30.65;7.65;;;8.60;99.90;;;;;;5044386;28;20047;-66
2024/02/20 10:02:45;;;;;;;32.50;9.70;;;8.60;99.90;;;;;;5040260;28;20053;-66
2024/02/20 10:05:17;;;;;;;34.80;9.10;;;8.60;99.90;;;;;;5044155;28;20064;-66
2024/02/20 10:07:43;;;;;;;32.38;8.45;;;8.60;99.90;;;;;;5046661;28;20037;-66
2024/02/20 10:10:10;;;;;;;41.25;8.90;;;8.60;99.90;;;;;;5040484;28;20482;-66
2024/02/20 10:12:37;;;;;;;35.80;8.80;;;8.60;99.90;;;;;;5044697;28;20033;-66
2024/02/20 10:15:07;;;;;;;41.83;8.68;;;8.70;99.90;;;;;;5047291;28;20044;-66
2024/02/20 10:17:33;;;;;;;41.15;8.80;;;8.70;99.90;;;;;;5046233;28;20043;-66
2024/02/20 10:20:08;;;;;;;36.20;9.70;;;8.70;99.90;;;;;;5047648;28;20044;-66
2024/02/20 10:22:34;;;;;;;33.80;8.63;;;8.70;99.90;;;;;;5047920;28;20056;-66
2024/02/20 10:25:12;;;;;;;32.92;7.82;;;8.70;99.90;;;;;;5064470;28;20618;-66
2024/02/20 10:27:38;;;;;;;32.80;8.85;;;8.80;99.90;;;;;;5046013;28;20170;-66
2024/02/20 10:30:07;;;;;;;34.83;9.15;;;8.80;99.90;;;;;;5061548;28;20033;-66
2024/02/20 10:32:34;;;;;;;31.60;8.25;;;8.80;99.90;;;;;;5064703;28;20036;-66
2024/02/20 10:35:02;;;;;;;31.95;9.75;;;8.80;99.90;;;;;;5068881;28;20524;-66
2024/02/20 10:37:28;;;;;;;25.25;8.02;;;8.90;99.90;;;;;;5072137;28;20041;-66
2024/02/20 10:40:06;;;;;;;27.88;7.40;;;9.00;99.90;;;;;;5051215;28;20115;-66
2024/02/20 10:42:35;;;;;;;39.17;8.05;;;9.10;99.90;;;;;;5047882;28;20125;-66
2024/02/20 10:45:09;;;;;;;31.90;7.43;;;9.10;99.90;;;;;;5048124;28;20044;-66
2024/02/20 10:47:44;;;;;;;36.10;8.32;;;9.10;99.90;;;;;;5050327;28;20564;-66
2024/02/20 10:50:12;;;;;;;30.42;7.32;;;9.20;99.90;;;;;;5064118;28;20452;-66
2024/02/20 10:52:39;;;;;;;24.52;6.85;;;9.30;99.90;;;;;;5050334;28;20068;-66
2024/02/20 10:55:15;;;;;;;31.25;6.80;;;9.30;99.90;;;;;;5047218;28;20102;-66
2024/02/20 10:57:42;;;;;;;31.02;7.57;;;9.30;99.90;;;;;;5061786;28;20052;-66
2024/02/20 11:00:09;;;;;;;26.55;7.40;;;9.30;99.90;;;;;;5046557;28;20380;-66
2024/02/20 11:02:46;;;;;;;29.85;7.63;;;9.40;99.90;;;;;;5039180;28;20040;-66
2024/02/20 11:05:13;;;;;;;34.67;7.32;;;9.30;99.90;;;;;;5066266;28;20066;-66
2024/02/20 11:07:39;;;;;;;31.33;7.30;;;9.40;99.90;;;;;;5064485;28;20477;-65
2024/02/20 11:10:10;;;;;;;36.88;7.63;;;9.40;99.90;;;;;;5048401;28;20135;-66
2024/02/20 11:12:39;;;;;;;27.65;7.40;;;9.40;99.90;;;;;;5048054;28;20048;-65
2024/02/20 11:15:14;;;;;;;28.95;7.55;;;9.40;99.90;;;;;;5061538;28;20041;-66
2024/02/20 11:17:40;;;;;;;26.00;6.18;;;9.50;99.90;;;;;;5044451;28;20040;-66
2024/02/20 11:20:14;;;;;;;29.73;7.65;;;9.50;99.90;;;;;;5045445;28;20036;-66
2024/02/20 11:22:40;;;;;;;32.05;7.90;;;9.60;99.90;;;;;;5045774;28;20037;-66
2024/02/20 11:25:14;;;;;;;28.65;6.90;;;9.50;99.90;;;;;;5044824;28;20068;-66
2024/02/20 11:27:47;;;;;;;28.20;7.85;;;9.60;99.90;;;;;;5044724;28;20045;-66
2024/02/20 11:30:21;;;;;;;29.55;6.60;;;9.60;99.90;;;;;;5047156;28;20425;-66
2024/02/20 11:32:54;;;;;;;32.63;7.05;;;9.60;99.90;;;;;;5042319;28;20040;-66
2024/02/20 11:35:30;;;;;;;31.05;6.78;;;9.60;99.90;;;;;;5042165;28;20045;-66
2024/02/20 11:37:57;;;;;;;32.25;6.82;;;9.60;99.90;;;;;;5049004;28;20991;-66
2024/02/20 11:40:28;;;;;;;27.25;6.60;;;9.60;99.90;;;;;;5043274;28;20411;-66
2024/02/20 11:42:56;;;;;;;26.42;7.22;;;9.70;99.90;;;;;;5064277;28;20040;-66
2024/02/20 11:45:24;;;;;;;31.88;7.55;;;10.00;99.90;;;;;;5051332;28;20044;-65
2024/02/20 11:48:00;;;;;;;23.50;6.15;;;9.70;99.90;;;;;;5045599;28;20059;-66
2024/02/20 11:50:29;;;;;;;32.85;6.90;;;9.70;99.90;;;;;;5046318;28;20144;-66
2024/02/20 11:53:15;;;;;;;27.90;6.43;;;9.80;99.90;;;;;;5047387;28;20075;-66
2024/02/20 11:55:53;;;;;;;28.63;6.35;;;9.80;99.90;;;;;;5064422;28;20044;-66
2024/02/20 11:58:23;;;;;;;23.85;6.15;;;9.80;99.90;;;;;;5063489;28;20402;-66
2024/02/20 12:00:51;;;;;;;20.17;5.47;;;9.80;99.90;;;;;;5063227;28;20035;-66
2024/02/20 12:03:33;;;;;;;26.50;6.32;;;9.80;99.90;;;;;;5040899;28;20147;-66
2024/02/20 12:06:09;;;;;;;27.75;6.40;;;9.80;99.90;;;;;;5067124;28;20378;-66
2024/02/20 12:08:41;;;;;;;32.28;7.20;;;9.80;99.90;;;;;;5060771;28;20047;-65
2024/02/20 12:11:08;;;;;;;30.52;7.10;;;9.80;99.90;;;;;;5061005;28;20456;-65
2024/02/20 12:13:34;;;;;;;23.42;5.70;;;9.90;99.90;;;;;;5045676;28;20036;-65
2024/02/20 12:16:00;;;;;;;23.30;6.38;;;9.80;99.90;;;;;;5047381;28;20044;-66
2024/02/20 12:18:31;;;;;;;25.17;6.15;;;9.90;99.90;;;;;;5062366;28;20052;-66
2024/02/20 12:21:09;;;;;;;27.83;6.32;;;9.90;99.90;;;;;;5044147;28;20037;-66
2024/02/20 12:23:37;;;;;;;23.17;6.45;;;9.90;99.90;;;;;;5028999;28;20071;-66
2024/02/20 12:26:08;;;;;;;26.88;5.82;;;9.90;99.90;;;;;;5041034;28;20044;-66
2024/02/20 12:28:34;;;;;;;23.80;5.03;;;9.90;99.90;;;;;;5061784;28;20036;-66
2024/02/20 12:31:00;;;;;;;20.55;5.38;;;9.90;99.90;;;;;;5044706;28;20036;-66
2024/02/20 12:33:27;;;;;;;21.40;5.18;;;9.90;99.90;;;;;;5074010;28;20036;-65
2024/02/20 12:35:57;;;;;;;25.98;5.60;;;9.80;99.90;;;;;;5049226;28;20051;-66
2024/02/20 12:38:26;;;;;;;21.10;5.40;;;9.90;99.90;;;;;;5033045;28;20127;-66
2024/02/20 12:40:52;;;;;;;20.83;5.82;;;9.90;99.90;;;;;;5045510;28;20040;-65
2024/02/20 12:43:17;;;;;;;30.67;6.20;;;10.00;99.90;;;;;;5041488;28;20041;-66